Time;durP1;ratioP1;P1;durP2;ratioP2;P2;SDS_P1;SDS_P2;PMS_P1;PMS_P2;Temp;Humidity;BMP_temperature;BMP_pressure;BME280_temperature;BME280_humidity;BME280_pressure;Samples;Min_cycle;Max_cycle;Signal;HPM_P1;HPM_P2
2022/09/03 00:01:24;;;;;;;3.70;1.38;;;18.50;99.90;;;;;;5042600;28;20504;-59
2022/09/03 00:04:00;;;;;;;4.80;1.30;;;18.50;99.90;;;;;;5047087;28;20502;-59
2022/09/03 00:06:37;;;;;;;2.45;1.13;;;18.40;99.90;;;;;;5041648;28;20029;-59
2022/09/03 00:09:26;;;;;;;3.88;1.30;;;18.40;99.90;;;;;;5042860;28;20137;-57
2022/09/03 00:12:08;;;;;;;2.85;1.40;;;18.30;99.90;;;;;;5054854;28;20032;-59
2022/09/03 00:14:46;;;;;;;5.23;1.47;;;18.10;99.90;;;;;;5043686;28;21223;-58
2022/09/03 00:17:17;;;;;;;2.22;1.20;;;18.20;99.90;;;;;;5043330;28;20033;-58
2022/09/03 00:20:11;;;;;;;2.35;1.45;;;18.10;99.90;;;;;;5044560;28;20033;-59
2022/09/03 00:22:48;;;;;;;2.80;1.23;;;18.00;99.90;;;;;;5053007;28;20095;-58
2022/09/03 00:25:23;;;;;;;2.55;1.33;;;18.00;99.90;;;;;;5065144;28;20037;-56
2022/09/03 00:27:53;;;;;;;2.58;1.35;;;18.00;99.90;;;;;;5062197;28;20032;-57
2022/09/03 00:30:19;;;;;;;1.98;1.30;;;18.00;99.90;;;;;;5064845;28;20067;-57
2022/09/03 00:33:04;;;;;;;2.08;1.10;;;17.90;99.90;;;;;;5065378;28;20056;-60
2022/09/03 00:35:56;;;;;;;2.03;1.40;;;17.80;99.90;;;;;;5044150;28;20033;-57
2022/09/03 00:38:22;;;;;;;3.08;1.40;;;17.80;99.90;;;;;;5041727;28;20504;-59
2022/09/03 00:41:08;;;;;;;3.53;1.40;;;17.70;99.90;;;;;;5041099;28;20076;-59
2022/09/03 00:43:48;;;;;;;2.88;1.13;;;17.70;99.90;;;;;;5045162;28;20037;-59
2022/09/03 00:46:35;;;;;;;5.88;1.50;;;17.60;99.90;;;;;;5039176;28;20051;-59
2022/09/03 00:49:12;;;;;;;2.15;1.13;;;17.60;99.90;;;;;;5044713;28;20515;-58
2022/09/03 00:51:50;;;;;;;3.05;1.40;;;17.50;99.90;;;;;;5042936;28;20068;-59
2022/09/03 00:54:43;;;;;;;4.55;1.50;;;17.70;99.90;;;;;;5042149;28;20048;-57
2022/09/03 00:57:15;;;;;;;3.05;1.20;;;17.50;99.90;;;;;;5039469;28;20049;-57
2022/09/03 00:59:56;;;;;;;2.00;1.40;;;17.40;99.90;;;;;;5044546;28;20040;-59
2022/09/03 01:02:37;;;;;;;2.58;1.20;;;17.20;99.90;;;;;;5041701;28;20090;-59
2022/09/03 01:05:10;;;;;;;2.17;1.40;;;17.10;99.90;;;;;;5040338;28;20063;-59
2022/09/03 01:08:04;;;;;;;1.60;1.10;;;17.10;99.90;;;;;;5035749;28;20040;-58
2022/09/03 01:10:54;;;;;;;2.65;1.25;;;17.10;99.90;;;;;;5043255;28;20025;-59
2022/09/03 01:13:41;;;;;;;4.93;1.40;;;17.00;99.90;;;;;;5042561;28;20567;-59
2022/09/03 01:16:25;;;;;;;2.70;1.23;;;16.90;99.90;;;;;;5041117;28;20350;-58
2022/09/03 01:19:17;;;;;;;;;;;16.80;99.90;;;;;;5045463;28;20170;-58
2022/09/03 01:22:08;;;;;;;2.70;1.30;;;16.70;99.90;;;;;;5041947;28;19963;-58
2022/09/03 01:24:52;;;;;;;8.27;1.30;;;16.70;99.90;;;;;;5041101;28;20056;-59
2022/09/03 01:27:35;;;;;;;3.78;1.40;;;16.70;99.90;;;;;;5043196;28;20656;-58
2022/09/03 01:30:03;;;;;;;;;;;16.60;99.90;;;;;;5042060;28;20479;-58
2022/09/03 01:32:38;;;;;;;3.25;1.35;;;16.60;99.90;;;;;;5051936;28;19923;-58
2022/09/03 01:35:09;;;;;;;3.17;1.35;;;16.50;99.90;;;;;;5039977;28;20603;-58
2022/09/03 01:37:52;;;;;;;3.05;1.30;;;16.50;99.90;;;;;;5044371;28;20665;-59
2022/09/03 01:40:41;;;;;;;4.00;1.35;;;16.40;99.90;;;;;;5042601;28;20076;-59
2022/09/03 01:43:38;;;;;;;2.13;1.10;;;16.50;99.90;;;;;;5040165;28;20036;-57
2022/09/03 01:46:22;;;;;;;2.15;1.00;;;16.50;99.90;;;;;;5039937;28;20072;-59
2022/09/03 01:49:06;;;;;;;4.25;1.40;;;16.50;99.90;;;;;;5038289;28;20025;-57
2022/09/03 01:51:32;;;;;;;5.15;1.52;;;16.40;99.90;;;;;;5036016;28;20029;-57
2022/09/03 01:54:16;;;;;;;1.80;1.27;;;16.30;99.90;;;;;;5041231;28;20033;-58
2022/09/03 01:57:19;;;;;;;1.92;1.40;;;16.40;99.90;;;;;;5042452;28;20472;-58
2022/09/03 02:00:00;;;;;;;2.73;1.40;;;16.30;99.90;;;;;;5059461;28;20044;-58
2022/09/03 02:02:27;;;;;;;4.10;1.30;;;16.20;99.90;;;;;;5041614;28;20514;-58
2022/09/03 02:04:59;;;;;;;2.40;1.25;;;16.20;99.90;;;;;;5044275;28;20029;-58
2022/09/03 02:07:32;;;;;;;2.75;1.08;;;16.20;99.90;;;;;;5041609;28;20630;-57
2022/09/03 02:09:59;;;;;;;2.75;1.35;;;16.10;99.90;;;;;;5042914;28;20412;-58
2022/09/03 02:12:28;;;;;;;6.68;1.40;;;15.90;99.90;;;;;;5041076;28;20116;-58
2022/09/03 02:14:54;;;;;;;2.90;1.40;;;16.00;99.90;;;;;;5042473;28;20488;-56
2022/09/03 02:17:20;;;;;;;2.15;1.23;;;15.90;99.90;;;;;;5041328;28;20044;-57
2022/09/03 02:19:46;;;;;;;1.50;1.20;;;16.00;99.90;;;;;;5039326;28;20041;-58
2022/09/03 02:22:12;;;;;;;2.15;1.40;;;16.00;99.90;;;;;;5043584;28;20040;-57
2022/09/03 02:24:38;;;;;;;3.60;1.50;;;16.00;99.90;;;;;;5041712;28;20029;-55
2022/09/03 02:27:03;;;;;;;1.48;1.20;;;15.90;99.90;;;;;;5041365;28;20041;-57
2022/09/03 02:29:29;;;;;;;4.53;1.52;;;15.90;99.90;;;;;;5043317;28;20036;-56
2022/09/03 02:31:56;;;;;;;2.63;1.60;;;15.90;99.90;;;;;;5038917;28;20025;-58
2022/09/03 02:34:22;;;;;;;2.50;1.50;;;15.90;99.90;;;;;;5042876;28;20037;-59
2022/09/03 02:36:48;;;;;;;3.70;1.25;;;15.90;99.90;;;;;;5045120;28;20037;-58
2022/09/03 02:39:15;;;;;;;2.55;1.30;;;15.80;99.90;;;;;;5044644;28;20345;-58
2022/09/03 02:41:41;;;;;;;2.80;1.48;;;15.70;99.90;;;;;;5037806;28;20076;-58
2022/09/03 02:44:16;;;;;;;2.33;1.38;;;15.60;99.90;;;;;;5042783;28;20066;-59
2022/09/03 02:46:52;;;;;;;2.05;1.23;;;15.70;99.90;;;;;;5039436;28;20033;-57
2022/09/03 02:49:17;;;;;;;1.98;1.10;;;15.60;99.90;;;;;;5041594;28;20116;-58
2022/09/03 02:51:43;;;;;;;2.55;1.05;;;15.50;99.90;;;;;;5041981;28;20689;-58
2022/09/03 02:54:11;;;;;;;2.70;1.02;;;15.40;99.90;;;;;;5042934;28;20034;-58
2022/09/03 02:56:37;;;;;;;1.80;1.30;;;15.30;99.90;;;;;;5043005;28;20041;-58
2022/09/03 02:59:04;;;;;;;1.35;1.00;;;15.30;99.90;;;;;;5045399;28;20043;-58
2022/09/03 03:01:30;;;;;;;7.28;1.38;;;15.40;99.90;;;;;;5042253;28;20071;-58
2022/09/03 03:03:55;;;;;;;2.28;1.20;;;15.40;99.90;;;;;;5042732;28;20063;-58
2022/09/03 03:06:21;;;;;;;1.70;1.20;;;15.40;99.90;;;;;;5041642;28;20525;-58
2022/09/03 03:08:48;;;;;;;4.28;1.10;;;15.40;99.90;;;;;;5047098;28;20591;-58
2022/09/03 03:11:17;;;;;;;1.48;1.02;;;15.40;99.90;;;;;;5040768;28;20033;-58
2022/09/03 03:13:43;;;;;;;2.28;1.20;;;15.40;99.90;;;;;;5049502;28;20033;-59
2022/09/03 03:16:10;;;;;;;2.97;1.23;;;15.30;99.90;;;;;;5036895;28;20044;-58
2022/09/03 03:18:35;;;;;;;2.25;1.20;;;15.30;99.90;;;;;;5043194;28;20396;-58
2022/09/03 03:21:19;;;;;;;2.55;1.23;;;15.40;99.90;;;;;;5048710;28;20049;-55
2022/09/03 03:23:45;;;;;;;1.95;1.02;;;15.40;99.90;;;;;;5050289;28;20033;-58
2022/09/03 03:26:13;;;;;;;2.55;1.20;;;15.30;99.90;;;;;;5045939;28;20438;-59
2022/09/03 03:28:41;;;;;;;5.28;1.05;;;15.30;99.90;;;;;;5049605;28;21625;-58
2022/09/03 03:31:12;;;;;;;2.45;1.10;;;15.20;99.90;;;;;;5045681;28;20029;-58
2022/09/03 03:33:39;;;;;;;1.73;1.10;;;15.30;99.90;;;;;;5051227;28;20040;-58
2022/09/03 03:36:06;;;;;;;1.75;1.15;;;15.20;99.90;;;;;;5048154;28;20037;-57
2022/09/03 03:38:32;;;;;;;2.10;1.00;;;15.20;99.90;;;;;;5045911;28;20037;-57
2022/09/03 03:40:58;;;;;;;3.22;1.40;;;15.10;99.90;;;;;;5047404;28;20525;-57
2022/09/03 03:43:24;;;;;;;2.10;1.10;;;15.10;99.90;;;;;;5046854;28;20041;-58
2022/09/03 03:45:56;;;;;;;1.95;0.93;;;15.30;99.90;;;;;;5044823;28;20029;-58
2022/09/03 03:48:22;;;;;;;2.17;1.30;;;15.20;99.90;;;;;;5042298;28;20037;-58
2022/09/03 03:50:48;;;;;;;4.63;1.40;;;15.10;99.90;;;;;;5046928;28;20072;-58
2022/09/03 03:53:13;;;;;;;1.55;1.20;;;15.00;99.90;;;;;;5048945;28;20040;-58
2022/09/03 03:55:40;;;;;;;3.90;1.23;;;15.10;99.90;;;;;;5047429;28;20040;-58
2022/09/03 03:58:06;;;;;;;2.20;1.40;;;15.10;99.90;;;;;;5046489;28;20218;-58
2022/09/03 04:00:36;;;;;;;2.45;1.27;;;15.00;99.90;;;;;;5044460;28;20127;-57
2022/09/03 04:03:03;;;;;;;2.55;1.30;;;15.00;99.90;;;;;;5043654;28;20084;-57
2022/09/03 04:05:29;;;;;;;1.75;1.17;;;15.00;99.90;;;;;;5046676;28;20503;-55
2022/09/03 04:07:54;;;;;;;1.70;1.25;;;14.80;99.90;;;;;;5045851;28;20040;-57
2022/09/03 04:10:20;;;;;;;1.73;1.10;;;14.80;99.90;;;;;;5038390;28;20033;-58
2022/09/03 04:12:46;;;;;;;4.68;1.30;;;14.90;99.90;;;;;;5045640;28;20025;-58
2022/09/03 04:15:12;;;;;;;2.13;1.35;;;14.80;99.90;;;;;;5039235;28;20086;-56
2022/09/03 04:17:38;;;;;;;2.10;1.45;;;14.90;99.90;;;;;;5046103;28;20615;-58
2022/09/03 04:20:04;;;;;;;3.33;1.50;;;14.90;99.90;;;;;;5045795;28;20178;-58
2022/09/03 04:22:30;;;;;;;2.63;1.33;;;14.80;99.90;;;;;;5041629;28;20715;-57
2022/09/03 04:24:55;;;;;;;7.28;1.52;;;14.90;99.90;;;;;;5046349;28;20037;-58
2022/09/03 04:27:21;;;;;;;4.15;1.38;;;14.80;99.90;;;;;;5042422;28;20466;-58
2022/09/03 04:29:46;;;;;;;5.43;1.70;;;14.80;99.90;;;;;;5046198;28;20459;-58
2022/09/03 04:34:56;;;;;;;3.40;1.75;;;14.80;99.90;;;;;;5042356;28;20094;-58
2022/09/03 04:37:22;;;;;;;3.63;1.65;;;14.70;99.90;;;;;;5045031;28;20523;-57
2022/09/03 04:39:47;;;;;;;9.07;1.90;;;14.70;99.90;;;;;;5048783;28;20417;-57
2022/09/03 04:42:13;;;;;;;7.93;1.80;;;14.80;99.90;;;;;;5043089;28;20032;-57
2022/09/03 04:44:39;;;;;;;2.83;1.58;;;14.60;99.90;;;;;;5042310;28;20033;-57
2022/09/03 04:47:05;;;;;;;3.97;1.70;;;14.70;99.90;;;;;;5042629;28;20063;-58
2022/09/03 04:49:31;;;;;;;4.53;1.98;;;14.70;99.90;;;;;;5043819;28;20057;-57
2022/09/03 04:51:57;;;;;;;5.22;1.77;;;14.80;99.90;;;;;;5044121;28;20436;-57
2022/09/03 04:54:22;;;;;;;3.47;1.83;;;14.80;99.90;;;;;;5043877;28;20086;-58
2022/09/03 04:56:48;;;;;;;5.55;2.47;;;14.70;99.90;;;;;;5044031;28;20033;-58
2022/09/03 04:59:14;;;;;;;3.70;1.58;;;14.80;99.90;;;;;;5044170;28;20082;-57
2022/09/03 05:01:39;;;;;;;5.32;1.95;;;15.00;99.90;;;;;;5042618;28;20045;-58
2022/09/03 05:04:06;;;;;;;6.63;2.28;;;14.80;99.90;;;;;;5044110;28;20104;-58
2022/09/03 05:06:33;;;;;;;5.72;1.98;;;14.80;99.90;;;;;;5038398;28;20120;-56
2022/09/03 05:08:59;;;;;;;3.20;1.77;;;14.60;99.90;;;;;;5044979;28;20449;-57
2022/09/03 05:11:26;;;;;;;3.95;1.95;;;14.70;99.90;;;;;;5044599;28;20436;-58
2022/09/03 05:13:55;;;;;;;3.10;1.77;;;14.60;99.90;;;;;;5037938;28;20026;-57
2022/09/03 05:16:22;;;;;;;3.53;2.00;;;14.70;99.90;;;;;;5037808;28;20193;-58
2022/09/03 05:18:51;;;;;;;4.60;2.10;;;14.80;99.90;;;;;;5044216;28;20456;-57
2022/09/03 05:21:18;;;;;;;3.25;2.10;;;15.00;99.90;;;;;;5037581;28;20041;-58
2022/09/03 05:23:46;;;;;;;3.47;1.60;;;15.10;99.90;;;;;;5045609;28;20380;-57
2022/09/03 05:26:14;;;;;;;5.72;2.15;;;14.90;99.90;;;;;;5043492;28;20037;-57
2022/09/03 05:28:41;;;;;;;3.70;1.90;;;14.90;99.90;;;;;;5044182;28;20483;-56
2022/09/03 05:31:18;;;;;;;6.43;2.35;;;14.80;99.90;;;;;;5042578;28;20041;-57
2022/09/03 05:33:49;;;;;;;5.70;2.05;;;15.00;99.90;;;;;;5040172;28;20901;-53
2022/09/03 05:36:17;;;;;;;4.28;2.08;;;15.00;99.90;;;;;;5040207;28;20052;-55
2022/09/03 05:38:44;;;;;;;5.88;1.98;;;15.10;99.90;;;;;;5038454;28;20552;-56
2022/09/03 05:41:12;;;;;;;6.38;2.20;;;15.30;99.90;;;;;;5044912;28;20519;-56
2022/09/03 05:43:38;;;;;;;3.25;2.10;;;15.10;99.90;;;;;;5043860;28;20032;-57
2022/09/03 05:46:10;;;;;;;3.75;1.90;;;15.20;99.90;;;;;;5041129;28;20049;-56
2022/09/03 05:48:37;;;;;;;3.08;1.70;;;15.30;99.90;;;;;;5042794;28;20095;-57
2022/09/03 05:51:11;;;;;;;5.90;2.05;;;15.40;99.90;;;;;;5039855;28;20127;-57
2022/09/03 05:53:39;;;;;;;4.93;1.98;;;15.40;99.90;;;;;;5044031;28;20036;-58
2022/09/03 05:56:09;;;;;;;5.13;2.22;;;15.50;99.90;;;;;;5040224;28;20124;-56
2022/09/03 05:58:46;;;;;;;6.20;2.33;;;15.50;99.90;;;;;;5044153;28;20033;-57
2022/09/03 06:01:14;;;;;;;2.97;1.90;;;15.70;99.90;;;;;;5041074;28;20136;-57
2022/09/03 06:03:41;;;;;;;5.18;2.00;;;15.80;99.90;;;;;;5044430;28;20091;-58
2022/09/03 06:06:08;;;;;;;4.45;2.42;;;15.90;99.90;;;;;;5039780;28;20110;-55
2022/09/03 06:08:34;;;;;;;6.00;2.22;;;16.00;99.90;;;;;;5038982;28;20044;-57
2022/09/03 06:11:03;;;;;;;5.25;1.83;;;16.10;99.90;;;;;;5041597;28;20381;-57
2022/09/03 06:13:28;;;;;;;6.25;2.10;;;16.20;99.90;;;;;;5037347;28;21026;-58
2022/09/03 06:15:58;;;;;;;5.88;2.00;;;16.30;99.90;;;;;;5039157;28;20061;-57
2022/09/03 06:18:28;;;;;;;12.88;3.47;;;16.40;99.90;;;;;;5043081;28;20052;-56
2022/09/03 06:20:58;;;;;;;11.38;2.70;;;16.60;99.90;;;;;;5044207;28;20391;-58
2022/09/03 06:23:24;;;;;;;4.60;1.80;;;16.70;99.90;;;;;;5041984;28;20044;-56
2022/09/03 06:26:11;;;;;;;9.65;1.85;;;16.90;99.90;;;;;;5043963;28;20037;-58
2022/09/03 06:28:40;;;;;;;6.40;1.48;;;17.00;99.90;;;;;;5042103;28;20120;-57
2022/09/03 06:31:07;;;;;;;1.95;1.17;;;17.10;99.90;;;;;;5040780;28;20407;-58
2022/09/03 06:33:35;;;;;;;3.67;1.55;;;17.30;99.90;;;;;;5042481;28;20048;-58
2022/09/03 06:36:03;;;;;;;3.30;1.20;;;17.50;99.90;;;;;;5038930;28;20515;-58
2022/09/03 06:38:30;;;;;;;4.57;1.40;;;17.60;99.90;;;;;;5042632;28;20055;-58
2022/09/03 06:41:00;;;;;;;8.23;1.45;;;17.60;99.90;;;;;;5042992;28;20044;-58
2022/09/03 06:43:27;;;;;;;5.90;1.10;;;17.70;99.90;;;;;;5041427;28;20036;-58
2022/09/03 06:45:58;;;;;;;5.80;1.40;;;17.90;99.90;;;;;;5041798;28;20045;-57
2022/09/03 06:48:24;;;;;;;4.03;1.20;;;18.00;99.90;;;;;;5041071;28;20036;-58
2022/09/03 06:51:01;;;;;;;5.22;1.15;;;18.30;99.90;;;;;;5041439;28;20040;-58
2022/09/03 06:53:35;;;;;;;3.70;1.27;;;18.30;99.90;;;;;;5041492;28;20110;-58
2022/09/03 06:56:04;;;;;;;3.53;1.17;;;18.40;99.90;;;;;;5038534;28;20025;-58
2022/09/03 06:58:31;;;;;;;4.25;1.23;;;18.40;99.90;;;;;;5041504;28;20656;-57
2022/09/03 07:01:07;;;;;;;4.75;1.30;;;18.50;99.90;;;;;;5039989;28;20094;-57
2022/09/03 07:03:34;;;;;;;2.70;1.38;;;18.70;99.90;;;;;;5037736;28;20052;-59
2022/09/03 07:06:05;;;;;;;7.85;1.65;;;18.60;99.90;;;;;;5039574;28;20501;-58
2022/09/03 07:08:32;;;;;;;4.43;1.25;;;18.60;99.90;;;;;;5035457;28;20030;-58
2022/09/03 07:10:59;;;;;;;4.53;1.45;;;18.80;99.90;;;;;;5040325;28;20040;-58
2022/09/03 07:13:25;;;;;;;1.60;1.05;;;18.90;99.90;;;;;;5035718;28;20033;-58
2022/09/03 07:16:02;;;;;;;3.78;1.10;;;18.90;99.90;;;;;;5041141;28;20445;-57
2022/09/03 07:18:28;;;;;;;3.42;1.10;;;19.10;99.90;;;;;;5041799;28;20064;-58
2022/09/03 07:21:02;;;;;;;1.05;0.90;;;19.10;99.90;;;;;;5039684;28;20045;-58
2022/09/03 07:23:29;;;;;;;4.63;1.27;;;19.30;99.90;;;;;;5039230;28;20036;-58
2022/09/03 07:26:00;;;;;;;2.50;1.10;;;19.30;99.90;;;;;;5041175;28;20068;-58
2022/09/03 07:28:27;;;;;;;2.47;1.00;;;19.40;99.90;;;;;;5038917;28;20029;-58
2022/09/03 07:30:54;;;;;;;3.20;1.13;;;19.50;99.90;;;;;;5038775;28;20135;-59
2022/09/03 07:33:20;;;;;;;5.35;1.00;;;19.60;99.90;;;;;;5040549;28;20041;-58
2022/09/03 07:35:46;;;;;;;3.05;1.20;;;19.60;99.90;;;;;;5041291;28;20044;-58
2022/09/03 07:38:17;;;;;;;1.75;1.00;;;19.70;99.90;;;;;;5039712;28;20140;-58
2022/09/03 07:40:42;;;;;;;4.60;1.10;;;19.70;99.90;;;;;;5041599;28;20037;-59
2022/09/03 07:43:08;;;;;;;2.35;1.02;;;19.80;99.90;;;;;;5043935;28;20178;-59
2022/09/03 07:45:34;;;;;;;2.67;1.02;;;19.90;99.90;;;;;;5041017;28;21946;-59
2022/09/03 07:47:59;;;;;;;3.78;1.02;;;19.90;99.90;;;;;;5041739;28;20037;-59
2022/09/03 07:50:25;;;;;;;5.40;1.10;;;19.90;99.90;;;;;;5040463;28;20119;-59
2022/09/03 07:52:57;;;;;;;5.18;1.27;;;20.00;99.90;;;;;;5042579;28;20487;-58
2022/09/03 07:55:23;;;;;;;3.03;1.50;;;20.00;99.90;;;;;;5037755;28;20064;-58
2022/09/03 07:57:49;;;;;;;4.05;2.17;;;20.10;99.90;;;;;;5042323;28;20403;-59
2022/09/03 08:00:16;;;;;;;5.70;1.13;;;20.20;99.90;;;;;;5040320;28;20040;-58
2022/09/03 08:02:41;;;;;;;2.03;1.33;;;20.30;99.90;;;;;;5040972;28;20057;-59
2022/09/03 08:05:07;;;;;;;2.38;1.00;;;20.40;99.90;;;;;;5040965;28;20701;-58
2022/09/03 08:07:33;;;;;;;3.22;1.20;;;20.40;99.90;;;;;;5037093;28;20047;-59
2022/09/03 08:10:00;;;;;;;3.15;0.82;;;20.40;99.90;;;;;;5046652;28;20033;-59
2022/09/03 08:12:26;;;;;;;1.90;1.10;;;20.50;99.90;;;;;;5040589;28;20545;-59
2022/09/03 08:14:51;;;;;;;5.47;1.02;;;20.50;99.90;;;;;;5045857;28;20041;-59
2022/09/03 08:17:17;;;;;;;5.68;1.50;;;20.70;99.90;;;;;;5043804;28;20033;-59
2022/09/03 08:19:45;;;;;;;3.85;1.00;;;20.80;99.90;;;;;;5045506;28;20036;-60
2022/09/03 08:22:10;;;;;;;2.08;1.25;;;20.80;99.90;;;;;;5040485;28;20034;-59
2022/09/03 08:24:36;;;;;;;1.80;1.10;;;20.90;99.90;;;;;;5043525;28;20143;-60
2022/09/03 08:27:02;;;;;;;4.10;1.10;;;21.00;99.90;;;;;;5048102;28;20036;-58
2022/09/03 08:29:28;;;;;;;1.92;0.90;;;21.00;99.90;;;;;;5041948;28;20113;-59
2022/09/03 08:31:53;;;;;;;3.22;1.10;;;21.10;99.90;;;;;;5044885;28;20564;-58
2022/09/03 08:34:19;;;;;;;5.07;1.20;;;21.10;99.90;;;;;;5045242;28;20361;-57
2022/09/03 08:36:45;;;;;;;6.68;1.25;;;21.20;99.90;;;;;;5045105;28;20090;-58
2022/09/03 08:39:11;;;;;;;1.42;1.10;;;21.20;99.90;;;;;;5045973;28;20546;-59
2022/09/03 08:42:03;;;;;;;1.95;1.10;;;21.20;99.90;;;;;;5040004;28;20037;-58
2022/09/03 08:44:55;;;;;;;3.28;1.30;;;21.40;99.90;;;;;;5042072;28;20493;-58
2022/09/03 08:47:32;;;;;;;1.48;0.95;;;21.40;99.90;;;;;;5041761;28;20116;-59
2022/09/03 08:50:25;;;;;;;4.07;1.00;;;21.30;99.90;;;;;;5043911;28;20125;-59
2022/09/03 08:52:59;;;;;;;1.60;1.00;;;21.40;99.90;;;;;;5042099;28;20407;-58
2022/09/03 08:55:45;;;;;;;1.85;1.10;;;21.50;99.90;;;;;;5044409;28;20094;-59
2022/09/03 08:58:13;;;;;;;3.13;1.20;;;21.50;99.90;;;;;;5044583;28;20060;-59
2022/09/03 09:01:11;;;;;;;3.22;1.50;;;21.50;99.90;;;;;;5044650;28;20044;-59
2022/09/03 09:04:06;;;;;;;5.75;1.10;;;21.50;99.90;;;;;;5042422;28;20083;-58
2022/09/03 09:06:54;;;;;;;6.70;1.60;;;21.70;99.90;;;;;;5013034;28;20044;-59
2022/09/03 09:09:47;;;;;;;5.35;1.23;;;21.80;99.90;;;;;;5039951;28;20137;-59
2022/09/03 09:12:23;;;;;;;6.45;1.23;;;21.90;99.90;;;;;;5042783;28;20029;-59
2022/09/03 09:15:10;;;;;;;3.50;1.35;;;22.00;99.90;;;;;;5057260;28;20033;-59
2022/09/03 09:18:06;;;;;;;4.05;1.27;;;22.00;99.90;;;;;;5041443;28;20036;-59
2022/09/03 09:20:41;;;;;;;5.28;1.17;;;22.00;99.90;;;;;;5040902;28;20052;-59
2022/09/03 09:23:25;;;;;;;3.53;1.20;;;22.00;99.90;;;;;;5043465;28;20090;-58
2022/09/03 09:25:54;;;;;;;2.15;1.20;;;22.10;99.90;;;;;;5042804;28;20403;-58
2022/09/03 09:28:27;;;;;;;4.25;1.23;;;22.20;99.90;;;;;;5042724;28;20487;-58
2022/09/03 09:30:55;;;;;;;4.65;1.50;;;22.30;99.90;;;;;;5043385;28;20041;-59
2022/09/03 09:33:21;;;;;;;4.95;1.27;;;22.20;99.90;;;;;;5043485;28;20480;-59
2022/09/03 09:35:48;;;;;;;1.60;1.10;;;22.30;99.90;;;;;;5041525;28;20033;-58
2022/09/03 09:38:14;;;;;;;4.90;1.20;;;22.30;99.90;;;;;;5042693;28;20140;-59
2022/09/03 09:40:42;;;;;;;3.13;1.17;;;22.40;99.90;;;;;;5044719;28;20479;-59
2022/09/03 09:43:14;;;;;;;3.25;1.27;;;22.40;99.90;;;;;;5044311;28;20484;-59
2022/09/03 09:45:42;;;;;;;5.22;1.58;;;22.40;99.90;;;;;;5040123;28;20079;-60
2022/09/03 09:48:32;;;;;;;2.40;1.35;;;22.40;99.90;;;;;;5043449;28;20072;-59
2022/09/03 09:51:16;;;;;;;3.22;1.17;;;22.50;99.90;;;;;;5042245;28;20583;-60
2022/09/03 09:53:43;;;;;;;5.43;1.20;;;22.50;99.90;;;;;;5038297;28;20033;-59
2022/09/03 09:56:23;;;;;;;3.67;1.15;;;22.40;99.90;;;;;;5043613;28;20048;-59
2022/09/03 09:58:51;;;;;;;3.85;1.30;;;22.40;99.90;;;;;;5038600;28;20141;-58
2022/09/03 10:01:29;;;;;;;2.10;1.33;;;22.50;99.90;;;;;;5040185;28;20652;-59
2022/09/03 10:04:21;;;;;;;2.17;1.48;;;22.50;99.90;;;;;;5043646;28;20112;-60
2022/09/03 10:06:55;;;;;;;3.88;1.42;;;22.50;99.90;;;;;;5034002;28;20040;-60
2022/09/03 10:09:24;;;;;;;4.72;1.50;;;22.60;99.90;;;;;;5036025;28;20076;-59
2022/09/03 10:12:06;;;;;;;2.17;1.30;;;22.50;99.90;;;;;;5037316;28;20025;-58
2022/09/03 10:14:38;;;;;;;308.95;274.63;;;22.60;99.90;;;;;;5041845;28;20043;-59
2022/09/03 10:17:22;;;;;;;4.88;1.83;;;22.70;99.90;;;;;;5041439;28;20087;-61
2022/09/03 10:20:32;;;;;;;2.42;1.45;;;22.80;99.90;;;;;;5037167;28;20059;-60
2022/09/03 10:23:03;;;;;;;2.47;1.20;;;22.80;99.90;;;;;;5041599;28;20025;-61
2022/09/03 10:25:52;;;;;;;2.70;1.20;;;22.80;99.90;;;;;;5042554;28;20027;-61
2022/09/03 10:28:22;;;;;;;4.68;1.60;;;22.80;99.90;;;;;;5041612;28;20037;-60
2022/09/03 10:31:10;;;;;;;5.10;1.45;;;22.90;99.90;;;;;;5043365;28;20041;-61
2022/09/03 10:33:48;;;;;;;2.88;1.60;;;22.90;99.90;;;;;;5043296;28;20361;-60
2022/09/03 10:36:30;;;;;;;3.92;1.45;;;23.00;99.90;;;;;;5037341;28;20034;-62
2022/09/03 10:39:07;;;;;;;7.18;1.92;;;23.00;99.90;;;;;;5041733;28;20115;-59
2022/09/03 10:41:54;;;;;;;5.95;1.60;;;23.00;99.90;;;;;;5040364;28;20103;-60
2022/09/03 10:44:51;;;;;;;4.60;3.22;;;23.10;99.90;;;;;;5039282;28;20052;-59
2022/09/03 10:47:36;;;;;;;3.65;1.40;;;23.10;99.90;;;;;;5038765;28;20065;-60
2022/09/03 10:50:15;;;;;;;3.67;1.92;;;23.10;99.90;;;;;;5037056;28;20069;-60
2022/09/03 10:53:23;;;;;;;3.90;1.70;;;23.10;99.90;;;;;;5042558;28;20069;-61
2022/09/03 10:55:59;;;;;;;4.40;1.80;;;23.20;99.90;;;;;;5031943;28;20040;-62
2022/09/03 10:58:52;;;;;;;3.47;1.70;;;23.30;99.90;;;;;;5042233;28;20029;-61
2022/09/03 11:01:33;;;;;;;2.50;1.98;;;23.30;99.90;;;;;;5035038;28;20037;-61
2022/09/03 11:04:18;;;;;;;4.15;1.70;;;23.20;99.90;;;;;;5038213;28;20119;-61
2022/09/03 11:06:52;;;;;;;4.68;2.00;;;23.20;99.90;;;;;;5038919;28;20025;-61
2022/09/03 11:09:24;;;;;;;3.35;1.60;;;23.20;99.90;;;;;;5035842;28;20184;-61
2022/09/03 11:11:59;;;;;;;4.60;1.83;;;23.20;99.90;;;;;;5039596;28;20412;-61
2022/09/03 11:14:48;;;;;;;5.72;1.90;;;23.20;99.90;;;;;;5036988;28;20088;-61
2022/09/03 11:17:25;;;;;;;7.55;1.98;;;23.20;99.90;;;;;;5036947;28;20033;-61
2022/09/03 11:20:15;;;;;;;5.03;2.13;;;23.10;99.90;;;;;;5036917;28;20037;-62
2022/09/03 11:22:44;;;;;;;6.18;1.80;;;23.20;99.90;;;;;;5047341;28;20372;-62
2022/09/03 11:25:12;;;;;;;4.45;1.70;;;23.20;99.90;;;;;;5041737;28;20392;-62
2022/09/03 11:27:41;;;;;;;4.72;2.05;;;23.30;99.90;;;;;;5045590;28;20441;-64
2022/09/03 11:30:13;;;;;;;4.20;1.83;;;23.20;99.90;;;;;;5042636;28;20032;-62
2022/09/03 11:32:54;;;;;;;4.67;1.93;;;23.30;99.90;;;;;;5042018;28;20033;-63
2022/09/03 11:35:40;;;;;;;3.25;1.50;;;23.20;99.90;;;;;;5035283;28;20030;-63
2022/09/03 11:38:19;;;;;;;3.35;1.70;;;23.20;99.90;;;;;;5041609;28;20500;-62
2022/09/03 11:41:03;;;;;;;4.63;1.95;;;23.30;99.90;;;;;;5045257;28;20082;-62
2022/09/03 11:43:32;;;;;;;;;;;23.40;99.90;;;;;;5046844;28;20252;-63
2022/09/03 11:46:28;;;;;;;4.35;2.05;;;23.40;99.90;;;;;;5044097;28;19913;-63
2022/09/03 11:49:08;;;;;;;2.80;1.65;;;23.40;99.90;;;;;;5048713;28;20024;-63
2022/09/03 11:51:36;;;;;;;7.75;2.25;;;23.50;99.90;;;;;;5045417;28;20051;-62
2022/09/03 11:54:02;;;;;;;4.55;1.70;;;23.40;99.90;;;;;;5041703;28;20050;-63
2022/09/03 11:56:29;;;;;;;4.20;2.00;;;23.40;99.90;;;;;;5045292;28;20481;-63
2022/09/03 11:59:13;;;;;;;9.80;2.00;;;23.30;99.90;;;;;;5048738;28;20102;-64
2022/09/03 12:01:59;;;;;;;7.70;2.78;;;23.40;99.90;;;;;;5060781;28;20036;-63
2022/09/03 12:04:42;;;;;;;4.93;2.55;;;23.50;99.90;;;;;;5070997;28;20353;-64
2022/09/03 12:07:19;;;;;;;3.40;2.50;;;23.50;99.90;;;;;;5060483;28;20028;-64
2022/09/03 12:10:23;;;;;;;4.00;2.20;;;23.60;99.90;;;;;;5046277;28;20484;-64
2022/09/03 12:12:49;;;;;;;;;;;23.60;99.90;;;;;;5078594;28;20686;-64
2022/09/03 12:15:35;;;;;;;6.18;1.80;;;23.50;99.90;;;;;;5062956;28;19952;-64
2022/09/03 12:18:17;;;;;;;8.07;1.80;;;23.60;99.90;;;;;;5062408;28;20043;-65
2022/09/03 12:20:44;;;;;;;3.17;1.67;;;23.60;99.90;;;;;;5078011;28;20040;-64
2022/09/03 12:23:13;;;;;;;3.05;1.67;;;23.50;99.90;;;;;;5068045;28;20507;-63
2022/09/03 12:25:46;;;;;;;2.00;1.70;;;23.50;99.90;;;;;;5060887;28;20437;-65
2022/09/03 12:28:15;;;;;;;7.43;1.92;;;23.60;99.90;;;;;;5063392;28;20032;-64
2022/09/03 12:30:41;;;;;;;6.78;1.73;;;23.60;99.90;;;;;;5066503;28;20060;-64
2022/09/03 12:33:09;;;;;;;4.28;1.83;;;23.60;99.90;;;;;;5066875;28;20071;-62
2022/09/03 12:35:35;;;;;;;3.88;1.80;;;23.70;99.90;;;;;;5067283;28;20522;-64
2022/09/03 12:38:00;;;;;;;3.95;2.60;;;23.70;99.90;;;;;;5060092;28;20064;-65
2022/09/03 12:40:28;;;;;;;14.57;10.32;;;23.70;99.90;;;;;;5044570;28;20029;-65
2022/09/03 12:42:54;;;;;;;4.93;1.90;;;23.60;99.90;;;;;;5044225;28;20053;-66
2022/09/03 12:45:23;;;;;;;4.57;2.00;;;23.60;99.90;;;;;;5041642;28;20044;-65
2022/09/03 12:47:50;;;;;;;4.40;1.77;;;23.60;99.90;;;;;;5041656;28;20036;-64
2022/09/03 12:50:19;;;;;;;4.28;1.60;;;23.60;99.90;;;;;;5045234;28;20037;-62
2022/09/03 12:52:50;;;;;;;3.47;2.00;;;23.60;99.90;;;;;;5043919;28;20083;-64
2022/09/03 12:55:49;;;;;;;3.10;1.80;;;23.60;99.90;;;;;;5040933;28;20033;-65
2022/09/03 12:58:25;;;;;;;5.30;1.80;;;23.60;99.90;;;;;;5039405;28;20028;-63
2022/09/03 13:01:15;;;;;;;2.40;1.90;;;23.50;99.90;;;;;;5038953;28;20048;-61
2022/09/03 13:03:56;;;;;;;3.50;1.90;;;23.50;99.90;;;;;;5039366;28;20375;-62
2022/09/03 13:06:28;;;;;;;5.05;1.80;;;23.60;99.90;;;;;;5041814;28;20044;-61
2022/09/03 13:08:59;;;;;;;6.47;1.95;;;23.70;99.90;;;;;;5040203;28;20040;-61
2022/09/03 13:11:26;;;;;;;4.47;2.30;;;23.70;99.90;;;;;;5057249;28;20041;-61
2022/09/03 13:14:09;;;;;;;2.60;2.05;;;23.60;99.90;;;;;;5043042;28;20511;-62
2022/09/03 13:16:48;;;;;;;6.20;2.00;;;23.60;99.90;;;;;;5042198;28;20501;-62
2022/09/03 13:19:23;;;;;;;2.10;1.90;;;23.50;99.90;;;;;;5042718;28;20037;-60
2022/09/03 13:22:16;;;;;;;4.03;2.00;;;23.60;99.90;;;;;;5047307;28;20124;-59